Time,TemperatureF,DewpointF,PressureIn,WindDirection,WindDirectionDegrees,WindSpeedMPH,WindSpeedGustMPH,Humidity,HourlyPrecipIn,Conditions,Clouds,dailyrainin,SoftwareType,DateUTC
2013-10-31 00:14:00,43.0,41.0,30.26,WNW,284,0.0,1.0,93,0.00,,,0.00,weatherlink.com 1.10,2013-10-31 04:14:00,
2013-10-31 00:29:00,42.5,41.0,30.26,WNW,284,0.0,0.0,94,0.00,,,0.00,weatherlink.com 1.10,2013-10-31 04:29:00,
2013-10-31 00:44:00,42.2,41.0,30.27,WNW,284,0.0,0.0,94,0.00,,,0.00,weatherlink.com 1.10,2013-10-31 04:44:00,
2013-10-31 00:59:00,41.8,40.0,30.26,WNW,284,0.0,0.0,94,0.00,,,0.00,weatherlink.com 1.10,2013-10-31 04:59:00,
2013-10-31 01:14:00,41.3,40.0,30.26,WNW,284,0.0,0.0,94,0.00,,,0.00,weatherlink.com 1.10,2013-10-31 05:14:00,
2013-10-31 01:29:00,41.6,40.0,30.26,WNW,284,0.0,0.0,95,0.00,,,0.00,weatherlink.com 1.10,2013-10-31 05:29:00,
2013-10-31 01:44:00,42.5,42.0,30.26,WNW,284,0.0,0.0,96,0.00,,,0.00,weatherlink.com 1.10,2013-10-31 05:44:00,
2013-10-31 01:59:00,42.5,41.0,30.26,WNW,284,0.0,0.0,95,0.00,,,0.00,weatherlink.com 1.10,2013-10-31 05:59:00,
2013-10-31 02:14:00,42.3,41.0,30.26,WNW,284,0.0,1.0,95,0.00,,,0.00,weatherlink.com 1.10,2013-10-31 06:14:00,
2013-10-31 02:29:00,42.4,41.0,30.26,West,274,0.0,1.0,95,0.00,,,0.00,weatherlink.com 1.10,2013-10-31 06:29:00,
2013-10-31 02:44:00,42.9,42.0,30.25,West,274,0.0,0.0,95,0.00,,,0.00,weatherlink.com 1.10,2013-10-31 06:44:00,
2013-10-31 02:59:00,43.7,43.0,30.25,West,274,0.0,1.0,96,0.00,,,0.00,weatherlink.com 1.10,2013-10-31 06:59:00,
2013-10-31 03:14:00,44.4,43.0,30.25,West,274,0.0,0.0,96,0.00,,,0.00,weatherlink.com 1.10,2013-10-31 07:14:00,
2013-10-31 03:29:00,44.7,44.0,30.25,West,274,0.0,0.0,96,0.00,,,0.00,weatherlink.com 1.10,2013-10-31 07:29:00,
2013-10-31 03:44:00,44.7,44.0,30.25,West,274,0.0,0.0,96,0.00,,,0.00,weatherlink.com 1.10,2013-10-31 07:44:00,
2013-10-31 03:59:00,45.0,44.0,30.26,West,274,0.0,0.0,96,0.00,,,0.00,weatherlink.com 1.10,2013-10-31 07:59:00,
2013-10-31 04:15:00,45.4,44.0,30.25,West,274,0.0,0.0,96,0.00,,,0.00,weatherlink.com 1.10,2013-10-31 08:15:00,
2013-10-31 04:29:00,45.3,44.0,30.25,West,274,0.0,0.0,96,0.00,,,0.00,weatherlink.com 1.10,2013-10-31 08:29:00,
2013-10-31 04:45:00,44.9,44.0,30.25,West,274,0.0,0.0,95,0.00,,,0.00,weatherlink.com 1.10,2013-10-31 08:45:00,
2013-10-31 05:14:00,44.2,43.0,30.24,West,274,0.0,0.0,95,0.00,,,0.00,weatherlink.com 1.10,2013-10-31 09:14:00,
2013-10-31 05:29:00,44.3,43.0,30.24,West,274,0.0,0.0,96,0.00,,,0.00,weatherlink.com 1.10,2013-10-31 09:29:00,
2013-10-31 05:44:00,44.2,43.0,30.24,West,274,0.0,0.0,96,0.00,,,0.00,weatherlink.com 1.10,2013-10-31 09:44:00,
2013-10-31 05:59:00,44.5,44.0,30.23,West,274,0.0,0.0,96,0.00,,,0.00,weatherlink.com 1.10,2013-10-31 09:59:00,
2013-10-31 06:15:00,44.7,44.0,30.23,West,274,0.0,0.0,96,0.00,,,0.00,weatherlink.com 1.10,2013-10-31 10:15:00,
2013-10-31 06:30:00,45.0,44.0,30.23,West,274,0.0,0.0,96,0.00,,,0.00,weatherlink.com 1.10,2013-10-31 10:30:00,
2013-10-31 06:45:00,44.9,44.0,30.23,West,274,0.0,0.0,96,0.00,,,0.00,weatherlink.com 1.10,2013-10-31 10:45:00,
2013-10-31 07:00:00,44.2,43.0,30.23,West,274,0.0,1.0,95,0.00,,,0.00,weatherlink.com 1.10,2013-10-31 11:00:00,
2013-10-31 07:15:00,44.2,43.0,30.23,West,274,0.0,1.0,96,0.00,,,0.00,weatherlink.com 1.10,2013-10-31 11:15:00,
2013-10-31 07:30:00,44.4,43.0,30.23,West,274,0.0,0.0,96,0.00,,,0.00,weatherlink.com 1.10,2013-10-31 11:30:00,
2013-10-31 07:45:00,44.3,43.0,30.24,West,274,0.0,0.0,96,0.00,,,0.00,weatherlink.com 1.10,2013-10-31 11:45:00,
2013-10-31 08:00:00,44.6,44.0,30.24,West,274,0.0,0.0,96,0.00,,,0.00,weatherlink.com 1.10,2013-10-31 12:00:00,
2013-10-31 08:15:00,45.8,45.0,30.25,West,274,0.0,0.0,97,0.00,,,0.00,weatherlink.com 1.10,2013-10-31 12:15:00,
2013-10-31 08:30:00,48.0,47.0,30.25,West,274,0.0,0.0,97,0.00,,,0.00,weatherlink.com 1.10,2013-10-31 12:30:00,
2013-10-31 08:45:00,50.0,49.0,30.25,West,274,0.0,0.0,97,0.00,,,0.00,weatherlink.com 1.10,2013-10-31 12:45:00,
2013-10-31 09:00:00,51.5,51.0,30.25,West,274,0.0,0.0,97,0.00,,,0.00,weatherlink.com 1.10,2013-10-31 13:00:00,
2013-10-31 09:15:00,54.4,54.0,30.24,WSW,244,1.0,3.0,97,0.00,,,0.00,weatherlink.com 1.10,2013-10-31 13:15:00,
2013-10-31 09:30:00,57.2,56.0,30.24,SSW,199,2.0,6.0,97,0.00,,,0.00,weatherlink.com 1.10,2013-10-31 13:30:00,
2013-10-31 09:45:00,58.6,58.0,30.24,WSW,247,1.0,6.0,97,0.00,,,0.00,weatherlink.com 1.10,2013-10-31 13:45:00,
2013-10-31 10:05:00,59.6,56.0,30.23,SSW,192,2.0,6.0,87,0.00,,,0.00,weatherlink.com 1.10,2013-10-31 14:05:00,
2013-10-31 10:16:00,60.5,56.0,30.23,SSW,197,3.0,4.0,84,0.00,,,0.00,weatherlink.com 1.10,2013-10-31 14:16:00,
2013-10-31 10:31:00,60.8,56.0,30.22,South,171,1.0,4.0,83,0.00,,,0.00,weatherlink.com 1.10,2013-10-31 14:31:00,
2013-10-31 10:46:00,60.8,55.0,30.22,SSE,156,2.0,7.0,82,0.00,,,0.00,weatherlink.com 1.10,2013-10-31 14:46:00,
2013-10-31 11:05:00,62.6,56.0,30.20,SSW,192,2.0,10.0,79,0.00,,,0.00,weatherlink.com 1.10,2013-10-31 15:05:00,
2013-10-31 11:15:00,62.9,55.0,30.21,SSW,195,1.0,7.0,76,0.00,,,0.00,weatherlink.com 1.10,2013-10-31 15:15:00,
2013-10-31 11:30:00,62.8,55.0,30.20,WSW,240,4.0,7.0,76,0.00,,,0.00,weatherlink.com 1.10,2013-10-31 15:30:00,
2013-10-31 11:45:00,62.5,56.0,30.20,SE,127,7.0,9.0,78,0.00,,,0.00,weatherlink.com 1.10,2013-10-31 15:45:00,
2013-10-31 12:05:00,62.3,55.0,30.18,South,181,1.0,8.0,78,0.00,,,0.00,weatherlink.com 1.10,2013-10-31 16:05:00,
2013-10-31 12:15:00,61.6,55.0,30.18,SSE,150,1.0,8.0,80,0.00,,,0.00,weatherlink.com 1.10,2013-10-31 16:15:00,
2013-10-31 12:30:00,61.7,56.0,30.17,WSW,253,1.0,7.0,81,0.00,,,0.00,weatherlink.com 1.10,2013-10-31 16:30:00,
2013-10-31 12:45:00,63.0,57.0,30.16,SW,230,1.0,7.0,81,0.00,,,0.00,weatherlink.com 1.10,2013-10-31 16:45:00,
2013-10-31 13:06:00,63.6,57.0,30.15,SSE,148,3.0,9.0,79,0.00,,,0.00,weatherlink.com 1.10,2013-10-31 17:06:00,
2013-10-31 13:16:00,63.9,57.0,30.14,West,280,3.0,4.0,79,0.00,,,0.00,weatherlink.com 1.10,2013-10-31 17:16:00,
2013-10-31 13:31:00,62.8,57.0,30.14,South,188,2.0,8.0,81,0.00,,,0.00,weatherlink.com 1.10,2013-10-31 17:31:00,
2013-10-31 13:46:00,62.6,57.0,30.12,South,184,6.0,8.0,83,0.00,,,0.00,weatherlink.com 1.10,2013-10-31 17:46:00,
2013-10-31 14:05:00,62.9,58.0,30.11,SW,225,2.0,7.0,84,0.00,,,0.00,weatherlink.com 1.10,2013-10-31 18:05:00,
2013-10-31 14:15:00,63.2,58.0,30.11,WSW,248,4.0,9.0,83,0.00,,,0.00,weatherlink.com 1.10,2013-10-31 18:15:00,
2013-10-31 14:30:00,62.9,58.0,30.11,ESE,115,3.0,9.0,84,0.00,,,0.00,weatherlink.com 1.10,2013-10-31 18:30:00,
2013-10-31 14:46:00,62.7,58.0,30.10,South,181,2.0,7.0,85,0.00,,,0.00,weatherlink.com 1.10,2013-10-31 18:46:00,
2013-10-31 15:04:00,62.5,58.0,30.09,SSE,164,2.0,6.0,85,0.00,,,0.00,weatherlink.com 1.10,2013-10-31 19:04:00,
2013-10-31 15:16:00,62.5,58.0,30.08,SSW,198,8.0,10.0,85,0.00,,,0.00,weatherlink.com 1.10,2013-10-31 19:16:00,
2013-10-31 15:31:00,62.7,58.0,30.08,SSW,201,3.0,10.0,84,0.00,,,0.00,weatherlink.com 1.10,2013-10-31 19:31:00,
2013-10-31 15:46:00,62.7,58.0,30.08,SSE,152,2.0,7.0,85,0.00,,,0.00,weatherlink.com 1.10,2013-10-31 19:46:00,
2013-10-31 16:01:00,62.5,58.0,30.08,SW,234,0.0,8.0,86,0.00,,,0.00,weatherlink.com 1.10,2013-10-31 20:01:00,
2013-10-31 16:16:00,62.2,58.0,30.08,SW,225,1.0,6.0,87,0.00,,,0.00,weatherlink.com 1.10,2013-10-31 20:16:00,
2013-10-31 16:31:00,62.1,59.0,30.07,SW,222,1.0,-999.0,88,-99.99,,,0.00,weatherlink.com 1.10,2013-10-31 20:31:00,
2013-10-31 16:46:00,62.1,59.0,30.07,SSW,205,2.0,9.0,88,0.00,,,0.00,weatherlink.com 1.10,2013-10-31 20:46:00,
2013-10-31 17:01:00,62.0,59.0,30.07,South,191,1.0,9.0,89,0.00,,,0.00,weatherlink.com 1.10,2013-10-31 21:01:00,
2013-10-31 17:31:00,61.8,59.0,30.06,South,174,2.0,8.0,90,0.00,,,0.00,weatherlink.com 1.10,2013-10-31 21:31:00,
2013-10-31 17:46:00,62.0,59.0,30.06,SSW,205,3.0,9.0,90,0.00,,,0.00,weatherlink.com 1.10,2013-10-31 21:46:00,
2013-10-31 18:01:00,62.0,59.0,30.06,SSE,167,7.0,9.0,90,0.00,,,0.00,weatherlink.com 1.10,2013-10-31 22:01:00,
2013-10-31 18:16:00,62.2,59.0,30.06,North,359,3.0,9.0,90,0.00,,,0.00,weatherlink.com 1.10,2013-10-31 22:16:00,
2013-10-31 18:31:00,62.3,59.0,30.06,SE,127,1.0,11.0,89,0.00,,,0.00,weatherlink.com 1.10,2013-10-31 22:31:00,
2013-10-31 18:46:00,62.3,59.0,30.05,South,191,2.0,4.0,89,0.00,,,0.00,weatherlink.com 1.10,2013-10-31 22:46:00,
2013-10-31 19:01:00,62.2,59.0,30.04,South,188,1.0,10.0,89,0.00,,,0.00,weatherlink.com 1.10,2013-10-31 23:01:00,
2013-10-31 19:16:00,62.1,59.0,30.04,South,186,0.0,12.0,89,0.00,,,0.00,weatherlink.com 1.10,2013-10-31 23:16:00,
2013-10-31 19:31:00,62.6,59.0,30.03,SSE,147,2.0,8.0,89,0.00,,,0.00,weatherlink.com 1.10,2013-10-31 23:31:00,
2013-10-31 19:46:00,62.7,59.0,30.03,South,172,2.0,11.0,88,0.00,,,0.00,weatherlink.com 1.10,2013-10-31 23:46:00,
2013-10-31 20:01:00,62.7,59.0,30.03,SSW,192,3.0,9.0,88,0.00,,,0.00,weatherlink.com 1.10,2013-11-01 00:01:00,
2013-10-31 20:16:00,62.6,59.0,30.02,SSW,193,7.0,9.0,88,0.00,,,0.00,weatherlink.com 1.10,2013-11-01 00:16:00,
2013-10-31 20:31:00,62.7,59.0,30.01,SSE,152,2.0,4.0,88,0.00,,,0.00,weatherlink.com 1.10,2013-11-01 00:31:00,
2013-10-31 20:47:00,62.5,59.0,30.00,South,173,2.0,9.0,88,0.00,,,0.00,weatherlink.com 1.10,2013-11-01 00:47:00,
2013-10-31 21:05:00,62.5,59.0,30.00,ESE,105,2.0,7.0,88,0.00,,,0.00,weatherlink.com 1.10,2013-11-01 01:05:00,
2013-10-31 21:16:00,62.6,59.0,29.99,South,178,2.0,7.0,88,0.00,,,0.00,weatherlink.com 1.10,2013-11-01 01:16:00,
2013-10-31 21:31:00,62.4,59.0,29.98,South,171,3.0,5.0,89,0.00,,,0.00,weatherlink.com 1.10,2013-11-01 01:31:00,
2013-10-31 21:47:00,62.4,59.0,29.97,SE,145,4.0,11.0,89,0.00,,,0.00,weatherlink.com 1.10,2013-11-01 01:47:00,
2013-10-31 22:05:00,62.5,59.0,29.97,West,266,2.0,10.0,89,0.00,,,0.00,weatherlink.com 1.10,2013-11-01 02:05:00,
2013-10-31 22:16:00,62.6,59.0,29.97,East,100,7.0,10.0,89,0.00,,,0.00,weatherlink.com 1.10,2013-11-01 02:16:00,
2013-10-31 22:31:00,62.9,60.0,29.95,SSE,162,7.0,12.0,89,0.00,,,0.00,weatherlink.com 1.10,2013-11-01 02:31:00,
2013-10-31 22:46:00,63.2,60.0,29.96,WNW,284,2.0,10.0,89,0.00,,,0.00,weatherlink.com 1.10,2013-11-01 02:46:00,
2013-10-31 23:06:00,63.4,60.0,29.95,SW,217,3.0,11.0,89,0.00,,,0.00,weatherlink.com 1.10,2013-11-01 03:06:00,
2013-10-31 23:17:00,63.6,60.0,29.94,NNW,331,5.0,9.0,89,0.00,,,0.00,weatherlink.com 1.10,2013-11-01 03:17:00,
2013-10-31 23:32:00,63.7,61.0,29.93,SE,136,3.0,10.0,91,0.00,,,0.00,weatherlink.com 1.10,2013-11-01 03:32:00,
2013-10-31 23:47:00,63.8,61.0,29.92,South,171,1.0,10.0,91,0.00,,,0.00,weatherlink.com 1.10,2013-11-01 03:47:00,